createdAt,value
2019-02-02T00:01:18.558Z,37.83
2019-02-02T00:03:45.903Z,38.50
2019-02-02T00:06:14.010Z,37.50
2019-02-02T00:08:41.374Z,50.27
2019-02-02T00:11:08.618Z,57.13
2019-02-02T00:13:36.560Z,60.30
2019-02-02T00:16:04.408Z,58.27
2019-02-02T00:18:31.802Z,49.67
2019-02-02T00:20:59.639Z,52.93
2019-02-02T00:23:27.028Z,48.47
2019-02-02T00:25:54.720Z,48.90
2019-02-02T00:28:22.357Z,40.83
2019-02-02T00:30:49.711Z,39.83
2019-02-02T00:33:17.545Z,40.13
2019-02-02T00:35:44.856Z,45.50
2019-02-02T00:38:12.172Z,42.50
2019-02-02T00:40:39.519Z,40.03
2019-02-02T00:43:06.847Z,43.47
2019-02-02T00:45:34.414Z,40.53
2019-02-02T00:48:01.671Z,38.53
2019-02-02T00:50:29.314Z,36.37
2019-02-02T00:52:56.944Z,35.87
2019-02-02T00:55:24.260Z,37.13
2019-02-02T00:57:53.916Z,43.00
2019-02-02T01:00:21.231Z,44.87
2019-02-02T01:02:48.549Z,50.13
2019-02-02T01:05:20.373Z,41.80
2019-02-02T01:07:48.095Z,45.17
2019-02-02T01:10:19.414Z,43.03
2019-02-02T01:12:48.632Z,39.77
2019-02-02T01:15:16.569Z,52.40
2019-02-02T01:17:44.438Z,41.83
2019-02-02T01:20:15.049Z,44.50
2019-02-02T01:22:42.441Z,42.47
2019-02-02T01:25:10.151Z,40.67
2019-02-02T01:27:37.793Z,40.77
2019-02-02T01:30:09.441Z,45.97
2019-02-02T01:32:36.739Z,38.87
2019-02-02T01:35:05.070Z,43.20
2019-02-02T01:37:32.524Z,42.03
2019-02-02T01:39:59.905Z,38.80
2019-02-02T01:42:27.227Z,43.90
2019-02-02T01:44:54.548Z,38.87
2019-02-02T01:47:21.874Z,48.77
2019-02-02T01:49:49.224Z,40.93
2019-02-02T01:52:16.510Z,37.57
2019-02-02T01:54:43.840Z,47.07
2019-02-02T01:57:11.083Z,46.03
2019-02-02T01:59:38.338Z,39.10
2019-02-02T02:02:05.580Z,40.33
2019-02-02T02:04:32.913Z,45.17
2019-02-02T02:07:00.151Z,43.10
2019-02-02T02:09:27.390Z,47.67
2019-02-02T02:11:54.612Z,45.27
2019-02-02T02:14:21.846Z,44.20
2019-02-02T02:16:49.093Z,41.00
2019-02-02T02:19:16.863Z,39.60
2019-02-02T02:21:44.196Z,47.53
2019-02-02T02:24:11.444Z,44.10
2019-02-02T02:26:38.700Z,50.60
2019-02-02T02:29:05.935Z,40.83
2019-02-02T02:31:33.197Z,42.40
2019-02-02T02:34:00.498Z,47.20
2019-02-02T02:36:27.814Z,38.17
2019-02-02T02:38:55.115Z,38.17
2019-02-02T02:41:34.717Z,45.87
2019-02-02T02:44:01.948Z,37.07
2019-02-02T02:46:29.272Z,40.40
2019-02-02T02:48:56.536Z,40.37
2019-02-02T02:51:23.747Z,42.27
2019-02-02T02:53:51.175Z,49.23
2019-02-02T02:56:20.815Z,48.93
2019-02-02T02:58:48.041Z,43.90
2019-02-02T03:01:15.297Z,45.73
2019-02-02T03:03:46.115Z,43.73
2019-02-02T03:06:13.786Z,51.27
2019-02-02T03:08:41.445Z,52.33
2019-02-02T03:11:11.852Z,46.93
2019-02-02T03:13:39.487Z,43.20
2019-02-02T03:16:06.799Z,49.93
2019-02-02T03:18:34.062Z,42.00
2019-02-02T03:21:01.291Z,43.53
2019-02-02T03:23:28.558Z,49.20
2019-02-02T03:25:55.803Z,44.93
2019-02-02T03:28:23.033Z,47.50
2019-02-02T03:30:50.286Z,49.17
2019-02-02T03:33:17.539Z,43.97
2019-02-02T03:35:44.800Z,41.50
2019-02-02T03:38:12.035Z,50.53
2019-02-02T03:40:39.288Z,47.83
2019-02-02T03:43:06.545Z,38.63
2019-02-02T03:45:33.771Z,44.87
2019-02-02T03:48:01.075Z,48.40
2019-02-02T03:50:28.548Z,47.03
2019-02-02T03:52:55.794Z,43.13
2019-02-02T03:55:23.081Z,44.40
2019-02-02T03:57:50.306Z,46.57
2019-02-02T04:00:18.996Z,52.63
2019-02-02T04:02:46.461Z,54.40
2019-02-02T04:05:16.367Z,49.77
2019-02-02T04:07:43.738Z,58.13
2019-02-02T04:10:11.079Z,47.57
2019-02-02T04:12:38.328Z,53.93
2019-02-02T04:15:12.697Z,56.33
2019-02-02T04:17:42.392Z,47.50
2019-02-02T04:20:12.551Z,48.40
2019-02-02T04:22:39.791Z,52.23
2019-02-02T04:25:07.837Z,51.23
2019-02-02T04:27:37.755Z,44.57
2019-02-02T04:30:07.700Z,43.90
2019-02-02T04:32:34.942Z,51.97
2019-02-02T04:35:02.305Z,45.83
2019-02-02T04:37:29.573Z,39.20
2019-02-02T04:39:56.811Z,43.47
2019-02-02T04:42:24.061Z,48.37
2019-02-02T04:44:51.403Z,46.03
2019-02-02T04:47:18.668Z,53.77
2019-02-02T04:49:45.903Z,46.77
2019-02-02T04:52:13.164Z,53.03
2019-02-02T04:54:40.481Z,49.43
2019-02-02T04:57:07.708Z,45.50
2019-02-02T04:59:34.975Z,53.17
2019-02-02T05:02:02.215Z,56.03
2019-02-02T05:04:29.531Z,51.27
2019-02-02T05:06:56.805Z,50.50
2019-02-02T05:09:24.143Z,51.27
2019-02-02T05:11:51.391Z,43.47
2019-02-02T05:14:18.615Z,52.47
2019-02-02T05:16:45.853Z,54.73
2019-02-02T05:19:13.085Z,59.23
2019-02-02T05:21:40.324Z,56.87
2019-02-02T05:24:07.621Z,52.47
2019-02-02T05:26:34.864Z,52.93
2019-02-02T05:29:02.172Z,53.67
2019-02-02T05:31:29.476Z,50.83
2019-02-02T05:33:56.829Z,47.57
2019-02-02T05:36:24.152Z,50.17
2019-02-02T05:38:51.424Z,49.37
2019-02-02T05:41:18.671Z,48.47
2019-02-02T05:43:45.923Z,55.07
2019-02-02T05:46:13.189Z,55.03
2019-02-02T05:48:40.447Z,63.63
2019-02-02T05:51:07.690Z,55.23
2019-02-02T05:53:34.955Z,49.87
2019-02-02T05:56:02.195Z,53.77
2019-02-02T05:58:29.522Z,50.17
2019-02-02T06:00:56.892Z,52.80
2019-02-02T06:03:24.151Z,43.33
2019-02-02T06:05:51.480Z,51.70
2019-02-02T06:08:18.740Z,54.67
2019-02-02T06:10:46.001Z,48.97
2019-02-02T06:13:13.231Z,52.27
2019-02-02T06:15:40.892Z,49.13
2019-02-02T06:18:08.163Z,49.57
2019-02-02T06:20:35.447Z,47.13
2019-02-02T06:23:02.740Z,44.93
2019-02-02T06:25:30.015Z,58.67
2019-02-02T06:27:57.256Z,45.23
2019-02-02T06:30:24.823Z,41.70
2019-02-02T06:32:52.143Z,49.60
2019-02-02T06:35:19.415Z,47.50
2019-02-02T06:38:06.582Z,50.27
2019-02-02T06:40:33.876Z,47.77
2019-02-02T06:43:01.108Z,51.00
2019-02-02T06:45:33.447Z,45.33
2019-02-02T06:48:00.789Z,47.67
2019-02-02T06:50:28.159Z,52.57
2019-02-02T06:52:55.851Z,54.13
2019-02-02T06:55:23.111Z,49.40
2019-02-02T06:57:50.396Z,48.80
2019-02-02T07:00:19.551Z,51.73
2019-02-02T07:02:47.000Z,49.77
2019-02-02T07:05:14.395Z,81.80
2019-02-02T07:07:41.631Z,64.80
2019-02-02T07:10:11.958Z,76.27
2019-02-02T07:12:39.252Z,70.97
2019-02-02T07:15:08.459Z,60.80
2019-02-02T07:17:35.804Z,57.90
2019-02-02T07:20:03.957Z,61.67
2019-02-02T07:22:31.242Z,61.30
2019-02-02T07:24:58.500Z,58.57
2019-02-02T07:27:25.803Z,67.63
2019-02-02T07:29:53.063Z,76.63
2019-02-02T07:32:20.330Z,92.53
2019-02-02T07:34:47.778Z,119.37
2019-02-02T07:37:15.099Z,81.83
2019-02-02T07:39:42.340Z,77.07
2019-02-02T07:42:09.592Z,161.97
2019-02-02T07:44:36.858Z,96.03
2019-02-02T07:47:04.122Z,108.33
2019-02-02T07:49:31.365Z,90.53
2019-02-02T07:51:58.588Z,67.43
2019-02-02T07:54:25.843Z,61.90
2019-02-02T07:56:53.081Z,63.07
2019-02-02T07:59:20.315Z,81.87
2019-02-02T08:01:47.559Z,72.33
2019-02-02T08:04:14.796Z,57.00
2019-02-02T08:06:42.043Z,66.30
2019-02-02T08:09:09.307Z,54.50
2019-02-02T08:11:36.580Z,55.77
2019-02-02T08:14:04.661Z,66.07
2019-02-02T08:16:31.892Z,67.50
2019-02-02T08:18:59.160Z,63.97
2019-02-02T08:21:26.427Z,73.70
2019-02-02T08:23:53.698Z,72.93
2019-02-02T08:26:20.971Z,73.57
2019-02-02T08:28:48.284Z,72.63
2019-02-02T08:31:15.604Z,61.20
2019-02-02T08:33:45.341Z,65.43
2019-02-02T08:36:11.994Z,65.77
2019-02-02T08:38:39.488Z,58.20
2019-02-02T08:41:06.731Z,66.93
2019-02-02T08:43:33.999Z,62.57
2019-02-02T08:46:01.343Z,64.53
2019-02-02T08:48:28.635Z,59.00
2019-02-02T08:50:55.974Z,56.30
2019-02-02T08:53:23.205Z,55.17
2019-02-02T08:55:52.029Z,59.67
2019-02-02T08:58:19.764Z,54.47
2019-02-02T09:00:47.920Z,54.47
2019-02-02T09:03:15.168Z,45.67
2019-02-02T09:05:42.460Z,50.77
2019-02-02T09:08:09.753Z,53.80
2019-02-02T09:10:37.028Z,59.27
2019-02-02T09:13:04.626Z,57.97
2019-02-02T09:15:31.872Z,53.63
2019-02-02T09:17:59.198Z,61.40
2019-02-02T09:20:26.433Z,56.60
2019-02-02T09:23:02.919Z,68.43
2019-02-02T09:25:22.881Z,60.23
2019-02-02T09:27:50.200Z,64.80
2019-02-02T09:30:25.799Z,66.00
2019-02-02T09:32:53.175Z,75.27
2019-02-02T09:35:20.502Z,60.30
2019-02-02T09:37:47.840Z,63.40
2019-02-02T09:40:16.351Z,64.50
2019-02-02T09:42:43.595Z,61.50
2019-02-02T09:45:11.941Z,58.50
2019-02-02T09:47:39.264Z,66.50
2019-02-02T09:50:09.365Z,70.93
2019-02-02T09:52:36.596Z,68.73
2019-02-02T09:55:05.575Z,65.10
2019-02-02T09:57:32.951Z,64.53
2019-02-02T10:00:00.271Z,62.77
2019-02-02T10:02:27.540Z,65.57
2019-02-02T10:04:54.833Z,57.53
2019-02-02T10:07:22.064Z,60.40
2019-02-02T10:09:49.306Z,60.67
2019-02-02T10:12:16.823Z,61.13
2019-02-02T10:14:44.063Z,60.50
2019-02-02T10:17:11.463Z,62.23
2019-02-02T10:19:39.000Z,59.77
2019-02-02T10:22:06.244Z,53.20
2019-02-02T10:24:33.571Z,56.40
2019-02-02T10:27:00.930Z,56.10
2019-02-02T10:29:28.355Z,59.43
2019-02-02T10:31:55.788Z,65.27
2019-02-02T10:34:23.028Z,59.53
2019-02-02T10:36:50.380Z,59.83
2019-02-02T10:39:17.639Z,64.80
2019-02-02T10:41:44.989Z,60.40
2019-02-02T10:44:14.388Z,61.43
2019-02-02T10:46:41.899Z,65.10
2019-02-02T10:49:09.752Z,61.57
2019-02-02T10:51:37.027Z,70.50
2019-02-02T10:54:05.595Z,65.13
2019-02-02T10:56:33.139Z,66.27
2019-02-02T10:59:00.392Z,67.73
2019-02-02T11:01:27.752Z,59.90
2019-02-02T11:03:55.135Z,62.83
2019-02-02T11:06:22.411Z,65.90
2019-02-02T11:08:49.806Z,74.00
2019-02-02T11:11:17.287Z,66.67
2019-02-02T11:13:45.789Z,76.80
2019-02-02T11:16:13.251Z,76.77
2019-02-02T11:18:40.652Z,68.43
2019-02-02T11:21:08.477Z,76.93
2019-02-02T11:23:36.941Z,65.90
2019-02-02T11:26:04.255Z,68.63
2019-02-02T11:28:31.555Z,81.27
2019-02-02T11:30:58.791Z,77.27
2019-02-02T11:33:26.036Z,81.93
2019-02-02T11:35:53.292Z,88.53
2019-02-02T11:38:20.524Z,85.20
2019-02-02T11:40:47.775Z,82.60
2019-02-02T11:43:15.041Z,88.13
2019-02-02T11:45:42.265Z,87.10
2019-02-02T11:48:09.613Z,97.40
2019-02-02T11:50:36.895Z,102.77
2019-02-02T11:53:04.233Z,90.83
2019-02-02T11:55:33.363Z,90.70
2019-02-02T11:58:00.806Z,90.17
2019-02-02T12:00:31.928Z,92.50
2019-02-02T12:02:59.338Z,96.27
2019-02-02T12:05:26.971Z,81.47
2019-02-02T12:07:54.477Z,87.97
2019-02-02T12:10:24.700Z,85.57
2019-02-02T12:12:53.131Z,80.67
2019-02-02T12:15:20.549Z,81.93
2019-02-02T12:17:51.981Z,82.83
2019-02-02T12:20:19.886Z,91.70
2019-02-02T12:22:47.315Z,79.13
2019-02-02T12:25:14.851Z,82.80
2019-02-02T12:27:42.507Z,89.63
2019-02-02T12:30:13.191Z,102.00
2019-02-02T12:39:57.091Z,97.87
2019-02-02T12:42:21.840Z,79.97
2019-02-02T12:44:49.184Z,82.10
2019-02-02T12:47:37.700Z,80.80
2019-02-02T12:50:05.255Z,81.70
2019-02-02T12:52:36.208Z,76.60
2019-02-02T12:55:26.098Z,73.20
2019-02-02T12:58:28.439Z,70.23
2019-02-02T13:01:56.149Z,66.33
2019-02-02T13:12:09.318Z,67.07
2019-02-02T13:14:36.676Z,68.07
2019-02-02T13:17:11.285Z,71.10
2019-02-02T13:29:08.050Z,91.10
2019-02-02T13:31:35.370Z,77.03
2019-02-02T13:34:03.416Z,73.90
2019-02-02T13:36:30.903Z,68.20
2019-02-02T13:38:58.231Z,76.07
2019-02-02T13:41:25.545Z,66.80
2019-02-02T13:43:52.799Z,67.57
2019-02-02T13:46:21.725Z,70.20
2019-02-02T13:48:51.141Z,61.97
2019-02-02T13:51:18.712Z,60.73
2019-02-02T13:53:46.013Z,62.67
2019-02-02T13:56:13.459Z,71.23
2019-02-02T13:58:41.466Z,66.70
2019-02-02T14:01:08.909Z,68.80
2019-02-02T14:03:36.591Z,98.87
2019-02-02T14:06:04.041Z,83.70
2019-02-02T14:08:31.367Z,73.93
2019-02-02T14:10:59.023Z,68.13
2019-02-02T14:13:26.305Z,71.70
2019-02-02T14:15:53.933Z,79.83
2019-02-02T14:18:21.224Z,71.20
2019-02-02T14:20:48.544Z,71.90
2019-02-02T14:23:15.931Z,76.00
2019-02-02T14:25:43.359Z,70.43
2019-02-02T14:28:10.627Z,75.73
2019-02-02T14:30:37.955Z,65.23
2019-02-02T14:33:13.797Z,67.53
2019-02-02T14:35:34.460Z,74.43
2019-02-02T14:38:01.757Z,71.60
2019-02-02T14:40:29.038Z,72.43
2019-02-02T14:42:56.398Z,68.90
2019-02-02T14:45:27.347Z,79.73
2019-02-02T14:47:55.680Z,76.07
2019-02-02T14:50:24.878Z,79.23
2019-02-02T14:52:52.331Z,75.87
2019-02-02T14:55:25.075Z,78.60
2019-02-02T14:57:52.612Z,73.60
2019-02-02T15:00:21.878Z,84.57
2019-02-02T15:02:49.253Z,72.97
2019-02-02T15:05:18.795Z,75.57
2019-02-02T15:07:46.171Z,76.07
2019-02-02T15:10:13.553Z,75.47
2019-02-02T15:12:40.834Z,85.50
2019-02-02T15:15:09.408Z,81.47
2019-02-02T15:17:36.766Z,75.13
2019-02-02T15:20:08.415Z,82.13
2019-02-02T15:22:35.728Z,81.70
2019-02-02T15:25:04.220Z,76.40
2019-02-02T15:27:31.499Z,77.33
2019-02-02T15:29:58.884Z,83.77
2019-02-02T15:32:28.243Z,89.93
2019-02-02T15:34:55.471Z,81.13
2019-02-02T15:37:22.748Z,81.73
2019-02-02T15:39:50.039Z,110.83
2019-02-02T15:42:17.296Z,92.13
2019-02-02T15:44:44.581Z,88.40
2019-02-02T15:47:11.824Z,97.10
2019-02-02T15:49:39.109Z,88.43
2019-02-02T15:52:06.375Z,96.80
2019-02-02T15:54:33.716Z,102.73
2019-02-02T15:57:01.089Z,91.87
2019-02-02T15:59:28.415Z,98.30
2019-02-02T16:01:56.132Z,90.53
2019-02-02T16:04:23.503Z,99.30
2019-02-02T16:06:50.723Z,85.30
2019-02-02T16:09:18.110Z,130.13
2019-02-02T16:11:45.348Z,100.17
2019-02-02T16:14:12.659Z,97.23
2019-02-02T16:16:42.328Z,98.60
2019-02-02T16:19:09.620Z,82.20
2019-02-02T16:21:36.868Z,84.93
2019-02-02T16:24:04.171Z,84.40
2019-02-02T16:26:31.415Z,81.07
2019-02-02T16:28:58.677Z,84.83
2019-02-02T16:31:25.952Z,85.83
2019-02-02T16:34:01.702Z,87.10
2019-02-02T16:36:22.853Z,93.27
2019-02-02T16:38:50.173Z,89.13
2019-02-02T16:41:17.533Z,89.47
2019-02-02T16:43:44.804Z,86.10
2019-02-02T16:46:12.155Z,89.33
2019-02-02T16:48:39.396Z,88.03
2019-02-02T16:51:06.638Z,96.37
2019-02-02T16:53:33.892Z,88.90
2019-02-02T16:56:01.143Z,99.23
2019-02-02T16:58:28.419Z,100.37
2019-02-02T17:00:55.647Z,92.20
2019-02-02T17:03:23.784Z,101.53
2019-02-02T17:05:51.059Z,96.00
2019-02-02T17:08:18.333Z,103.60
2019-02-02T17:10:45.837Z,116.23
2019-02-02T17:13:13.484Z,98.47
2019-02-02T17:15:40.815Z,94.00
2019-02-02T17:18:08.056Z,96.03
2019-02-02T17:20:37.712Z,94.00
2019-02-02T17:23:05.087Z,100.47
2019-02-02T17:25:32.329Z,86.70
2019-02-02T17:27:59.673Z,95.53
2019-02-02T17:30:26.928Z,93.20
2019-02-02T17:32:55.975Z,91.87
2019-02-02T17:35:23.295Z,97.37
2019-02-02T17:37:50.543Z,119.73
2019-02-02T17:40:20.062Z,117.00
2019-02-02T17:42:47.407Z,115.13
2019-02-02T17:45:15.880Z,108.97
2019-02-02T17:47:43.171Z,102.00
2019-02-02T17:50:15.115Z,94.43
2019-02-02T17:52:42.375Z,91.37
2019-02-02T17:55:09.948Z,91.53
2019-02-02T17:57:37.368Z,104.50
2019-02-02T18:00:07.677Z,105.73
2019-02-02T18:02:34.932Z,107.53
2019-02-02T18:05:02.166Z,100.37
2019-02-02T18:07:29.403Z,94.50
2019-02-02T18:09:56.689Z,101.50
2019-02-02T18:12:24.019Z,115.57
2019-02-02T18:14:51.294Z,106.07
2019-02-02T18:17:18.576Z,115.80
2019-02-02T18:19:45.811Z,112.97
2019-02-02T18:22:13.060Z,122.93
2019-02-02T18:24:40.367Z,104.60
2019-02-02T18:27:07.715Z,115.17
2019-02-02T18:29:34.949Z,124.17
2019-02-02T18:32:12.860Z,115.30
2019-02-02T18:34:31.393Z,122.97
2019-02-02T18:36:58.742Z,111.07
2019-02-02T18:39:26.174Z,108.40
2019-02-02T18:41:59.664Z,112.27
2019-02-02T18:44:28.731Z,116.40
2019-02-02T18:46:56.416Z,119.70
2019-02-02T18:49:24.044Z,120.07
2019-02-02T18:51:51.851Z,115.27
2019-02-02T18:54:19.412Z,123.47
2019-02-02T18:56:46.941Z,116.47
2019-02-02T18:59:14.283Z,112.87
2019-02-02T19:01:41.756Z,106.63
2019-02-02T19:04:08.996Z,97.03
2019-02-02T19:06:39.709Z,104.77
2019-02-02T19:09:24.633Z,108.93
2019-02-02T19:11:52.091Z,111.50
2019-02-02T19:14:25.547Z,109.03
2019-02-02T19:17:01.311Z,101.93
2019-02-02T19:19:28.736Z,110.33
2019-02-02T19:21:55.973Z,123.27
2019-02-02T19:24:23.227Z,116.43
2019-02-02T19:26:50.502Z,116.83
2019-02-02T19:29:17.997Z,125.80
2019-02-02T19:31:45.712Z,127.23
2019-02-02T19:34:13.667Z,135.43
2019-02-02T19:36:40.983Z,117.37
2019-02-02T19:39:18.054Z,116.80
2019-02-02T19:41:45.826Z,110.63
2019-02-02T19:44:13.178Z,119.83
2019-02-02T19:46:40.444Z,102.87
2019-02-02T19:49:23.012Z,109.23
2019-02-02T19:51:50.541Z,95.73
2019-02-02T19:54:18.224Z,99.03
2019-02-02T19:56:45.949Z,89.43
2019-02-02T20:00:15.286Z,83.93
2019-02-02T20:02:43.748Z,85.77
2019-02-02T20:05:11.798Z,83.43
2019-02-02T20:07:39.188Z,74.37
2019-02-02T20:10:08.963Z,104.13
2019-02-02T20:12:39.978Z,84.90
2019-02-02T20:15:09.255Z,78.30
2019-02-02T20:17:36.605Z,74.70
2019-02-02T20:20:05.323Z,72.10
2019-02-02T20:22:33.334Z,76.53
2019-02-02T20:25:01.200Z,66.17
2019-02-02T20:28:01.216Z,71.57
2019-02-02T20:30:29.877Z,74.10
2019-02-02T20:32:57.251Z,76.87
2019-02-02T20:35:39.812Z,69.93
2019-02-02T20:37:56.915Z,71.87
2019-02-02T20:40:27.993Z,70.73
2019-02-02T20:42:55.739Z,78.23
2019-02-02T20:45:48.332Z,61.63
2019-02-02T20:51:06.386Z,57.37
2019-02-02T20:53:33.756Z,65.00
2019-02-02T20:56:01.095Z,54.83
2019-02-02T20:58:28.470Z,52.87
2019-02-02T21:01:05.805Z,52.13
2019-02-02T21:03:33.180Z,49.03
2019-02-02T21:06:00.711Z,48.10
2019-02-02T21:08:28.027Z,50.63
2019-02-02T21:10:55.288Z,45.53
2019-02-02T21:13:22.524Z,47.63
2019-02-02T21:15:49.903Z,46.57
2019-02-02T21:18:17.583Z,46.57
2019-02-02T21:20:44.817Z,43.47
2019-02-02T21:23:13.256Z,44.27
2019-02-02T21:25:40.627Z,42.67
2019-02-02T21:28:08.165Z,50.37
2019-02-02T21:30:35.479Z,39.50
2019-02-02T21:33:03.671Z,39.50
2019-02-02T21:35:30.909Z,43.60
2019-02-02T21:37:58.153Z,40.10
2019-02-02T21:40:27.531Z,38.63
2019-02-02T21:42:55.390Z,38.97
2019-02-02T21:45:23.077Z,34.73
2019-02-02T21:47:51.174Z,37.33
2019-02-02T21:50:22.164Z,36.20
2019-02-02T21:52:50.196Z,37.03
2019-02-02T21:55:22.312Z,37.43
2019-02-02T21:57:49.753Z,40.30
2019-02-02T22:00:22.753Z,45.07
2019-02-02T22:02:50.573Z,38.80
2019-02-02T22:05:18.090Z,38.57
2019-02-02T22:07:47.354Z,37.20
2019-02-02T22:10:16.316Z,42.07
2019-02-02T22:12:43.805Z,39.23
2019-02-02T22:15:17.368Z,38.27
2019-02-02T22:17:44.720Z,39.17
2019-02-02T22:20:12.620Z,38.73
2019-02-02T22:22:40.155Z,37.87
2019-02-02T22:25:10.928Z,43.23
2019-02-02T22:27:39.196Z,40.23
2019-02-02T22:30:32.822Z,40.97
2019-02-02T22:33:00.139Z,49.47
2019-02-02T22:35:29.963Z,52.70
2019-02-02T22:37:57.980Z,54.43
2019-02-02T22:40:26.239Z,50.87
2019-02-02T22:42:53.817Z,50.10
2019-02-02T22:45:22.172Z,49.93
2019-02-02T22:47:50.461Z,39.17
2019-02-02T22:50:19.641Z,41.23
2019-02-02T22:52:50.625Z,37.83
2019-02-02T22:55:19.372Z,40.53
2019-02-02T22:57:47.135Z,34.53
2019-02-02T23:01:10.033Z,30.90
2019-02-02T23:04:16.756Z,27.13
2019-02-02T23:06:57.115Z,21.50
2019-02-02T23:10:26.451Z,20.93
2019-02-02T23:13:20.554Z,22.43
2019-02-02T23:16:29.231Z,19.43
2019-02-02T23:18:54.237Z,22.47
2019-02-02T23:21:25.998Z,24.50
2019-02-02T23:23:58.350Z,20.73
2019-02-02T23:26:27.006Z,21.87
2019-02-02T23:28:55.672Z,23.53
2019-02-02T23:31:30.138Z,25.07
2019-02-02T23:33:59.114Z,25.23
2019-02-02T23:36:27.225Z,22.77
2019-02-02T23:38:56.241Z,23.03
2019-02-02T23:41:26.461Z,22.10
2019-02-02T23:43:58.709Z,21.77
2019-02-02T23:46:26.397Z,23.03
2019-02-02T23:48:55.648Z,22.27
2019-02-02T23:51:23.310Z,21.43
2019-02-02T23:56:40.597Z,23.93
2019-02-02T23:59:16.422Z,18.33
